Time;durP1;ratioP1;P1;durP2;ratioP2;P2;SDS_P1;SDS_P2;PMS_P1;PMS_P2;Temp;Humidity;BMP_temperature;BMP_pressure;BME280_temperature;BME280_humidity;BME280_pressure;Samples;Min_cycle;Max_cycle;Signal;HPM_P1;HPM_P2
2022/12/14 00:00:45;;;;;;;35.78;16.52;;;-2.70;99.90;;;;;;5070519;28;20044;-69
2022/12/14 00:03:12;;;;;;;41.15;16.35;;;-2.70;99.90;;;;;;5070330;28;20040;-69
2022/12/14 00:05:38;;;;;;;34.75;16.27;;;-2.70;99.90;;;;;;5069717;28;20051;-69
2022/12/14 00:08:04;;;;;;;37.70;16.70;;;-2.70;99.90;;;;;;5070567;28;20040;-69
2022/12/14 00:10:31;;;;;;;39.35;17.55;;;-2.80;99.90;;;;;;5069997;28;20442;-68
2022/12/14 00:12:57;;;;;;;39.42;16.90;;;-2.90;99.90;;;;;;5070820;28;20058;-70
2022/12/14 00:15:23;;;;;;;36.78;16.42;;;-2.80;99.90;;;;;;5069982;28;20040;-69
2022/12/14 00:17:48;;;;;;;37.33;15.82;;;-2.70;99.90;;;;;;5070600;28;20045;-68
2022/12/14 00:20:14;;;;;;;34.03;15.75;;;-2.80;99.90;;;;;;5070742;28;20551;-69
2022/12/14 00:22:39;;;;;;;31.92;14.98;;;-2.90;99.90;;;;;;5070802;28;20036;-69
2022/12/14 00:25:06;;;;;;;36.00;16.02;;;-2.80;99.90;;;;;;5070147;28;20067;-69
2022/12/14 00:27:31;;;;;;;35.78;16.92;;;-2.80;99.90;;;;;;5070702;28;20040;-70
2022/12/14 00:29:57;;;;;;;31.48;15.30;;;-2.80;99.90;;;;;;5052491;28;20036;-70
2022/12/14 00:32:23;;;;;;;44.10;15.88;;;-2.90;99.90;;;;;;5070753;28;20063;-68
2022/12/14 00:34:48;;;;;;;38.72;16.90;;;-3.10;99.90;;;;;;5069641;28;20040;-69
2022/12/14 00:37:14;;;;;;;32.40;15.15;;;-3.00;99.90;;;;;;5070514;28;20116;-70
2022/12/14 00:39:40;;;;;;;31.48;15.40;;;-2.90;99.90;;;;;;5070133;28;20412;-69
2022/12/14 00:42:06;;;;;;;37.78;15.52;;;-3.00;99.90;;;;;;5070400;28;20035;-71
2022/12/14 00:44:32;;;;;;;30.95;14.18;;;-3.00;99.90;;;;;;5069777;28;20051;-69
2022/12/14 00:46:58;;;;;;;34.78;16.63;;;-3.20;99.90;;;;;;5072288;28;20041;-70
2022/12/14 00:49:23;;;;;;;37.08;15.80;;;-3.30;99.90;;;;;;5074334;28;20037;-70
2022/12/14 00:51:49;;;;;;;33.60;16.20;;;-3.20;99.90;;;;;;5074766;28;20043;-68
2022/12/14 00:54:15;;;;;;;34.17;15.60;;;-3.20;99.90;;;;;;5073990;28;20404;-69
2022/12/14 00:56:40;;;;;;;33.22;16.33;;;-3.10;99.90;;;;;;5074685;28;20127;-69
2022/12/14 00:59:06;;;;;;;32.25;14.52;;;-3.10;99.90;;;;;;5074354;28;20553;-69
2022/12/14 01:01:32;;;;;;;37.03;16.20;;;-3.10;99.90;;;;;;5073486;28;20137;-70
2022/12/14 01:04:15;;;;;;;33.53;15.48;;;-3.10;99.90;;;;;;5073294;28;20036;-69
2022/12/14 01:06:42;;;;;;;32.45;15.00;;;-3.10;99.90;;;;;;5074550;28;20370;-69
2022/12/14 01:09:08;;;;;;;30.13;15.80;;;-3.10;99.90;;;;;;5074245;28;20435;-70
2022/12/14 01:11:34;;;;;;;33.10;15.98;;;-3.30;99.90;;;;;;5073371;28;20036;-68
2022/12/14 01:13:59;;;;;;;34.10;15.88;;;-3.30;99.90;;;;;;5073464;28;20128;-69
2022/12/14 01:16:25;;;;;;;38.30;16.77;;;-3.30;99.90;;;;;;5074361;28;20083;-68
2022/12/14 01:18:50;;;;;;;33.00;15.48;;;-3.20;99.90;;;;;;5073992;28;20032;-69
2022/12/14 01:21:19;;;;;;;35.53;15.43;;;-3.20;99.90;;;;;;5073880;28;20558;-68
2022/12/14 01:23:46;;;;;;;35.53;16.60;;;-3.10;99.90;;;;;;5073014;28;20067;-71
2022/12/14 01:26:13;;;;;;;37.22;15.80;;;-3.10;99.90;;;;;;5073913;28;20751;-69
2022/12/14 01:28:39;;;;;;;33.15;16.45;;;-3.10;99.90;;;;;;5073607;28;20072;-69
2022/12/14 01:31:15;;;;;;;31.80;15.00;;;-3.30;99.90;;;;;;5073966;28;20431;-69
2022/12/14 01:33:42;;;;;;;34.70;16.05;;;-3.30;99.90;;;;;;5055249;28;20052;-72
2022/12/14 01:36:11;;;;;;;38.17;16.58;;;-3.30;99.90;;;;;;5073590;28;20044;-69
2022/12/14 01:38:36;;;;;;;39.33;16.38;;;-3.20;99.90;;;;;;5073765;28;20489;-70
2022/12/14 01:41:03;;;;;;;34.05;15.38;;;-3.30;99.90;;;;;;5073773;28;20128;-69
2022/12/14 01:44:21;;;;;;;33.83;14.68;;;-3.40;99.90;;;;;;5055571;28;20120;-69
2022/12/14 01:46:54;;;;;;;34.85;14.00;;;-3.30;99.90;;;;;;5070886;28;20052;-70
2022/12/14 01:49:40;;;;;;;33.22;14.65;;;-3.40;99.90;;;;;;5073578;28;20550;-69
2022/12/14 01:52:11;;;;;;;33.03;14.23;;;-3.40;99.90;;;;;;5073865;28;20040;-69
2022/12/14 01:54:44;;;;;;;35.28;15.10;;;-3.40;99.90;;;;;;5072841;28;20052;-69
2022/12/14 01:57:10;;;;;;;;;;;-3.40;99.90;;;;;;5073903;28;20094;-69
2022/12/14 01:59:40;;;;;;;30.63;14.57;;;-3.40;99.90;;;;;;5055292;28;19925;-69
2022/12/14 02:02:08;;;;;;;29.73;14.50;;;-3.40;99.90;;;;;;5071998;28;20036;-69
2022/12/14 02:04:38;;;;;;;32.97;14.43;;;-3.40;99.90;;;;;;5072514;28;20040;-69
2022/12/14 02:07:04;;;;;;;31.83;14.45;;;-3.40;99.90;;;;;;5073081;28;20363;-69
2022/12/14 02:09:33;;;;;;;38.30;16.55;;;-3.40;99.90;;;;;;5073073;28;20058;-69
2022/12/14 02:12:11;;;;;;;33.10;14.75;;;-3.40;99.90;;;;;;5072150;28;20081;-69
2022/12/14 02:14:37;;;;;;;30.48;13.20;;;-3.50;99.90;;;;;;5054376;28;20052;-69
2022/12/14 02:17:05;;;;;;;35.40;15.40;;;-3.40;99.90;;;;;;5072983;28;20036;-70
2022/12/14 02:19:31;;;;;;;33.13;13.80;;;-3.40;99.90;;;;;;5072613;28;20033;-70
2022/12/14 02:22:34;;;;;;;30.75;14.48;;;-3.50;99.90;;;;;;5073048;28;20051;-69
2022/12/14 02:25:19;;;;;;;;;;;-3.60;99.90;;;;;;5071392;28;20401;-68
2022/12/14 02:28:12;;;;;;;32.15;14.68;;;-3.60;99.90;;;;;;5054543;28;19960;-69
2022/12/14 02:30:40;;;;;;;35.95;15.10;;;-3.60;99.90;;;;;;5072456;28;20435;-70
2022/12/14 02:33:49;;;;;;;31.05;13.55;;;-3.60;99.90;;;;;;5072729;28;20044;-69
2022/12/14 02:36:42;;;;;;;30.65;15.07;;;-3.60;99.90;;;;;;5071549;28;20585;-69
2022/12/14 02:39:37;;;;;;;32.97;13.80;;;-3.70;99.90;;;;;;5072551;28;20052;-69
2022/12/14 02:42:03;;;;;;;33.47;13.68;;;-3.60;99.90;;;;;;5072733;28;20129;-69
2022/12/14 02:44:45;;;;;;;32.22;14.85;;;-3.70;99.90;;;;;;5071697;28;20111;-69
2022/12/14 02:47:35;;;;;;;34.60;14.57;;;-3.90;99.90;;;;;;5072328;28;20107;-70
2022/12/14 02:50:09;;;;;;;26.60;13.68;;;-4.00;99.90;;;;;;5072335;28;20075;-69
2022/12/14 02:53:08;;;;;;;34.45;14.40;;;-3.90;99.90;;;;;;5072419;28;20119;-69
2022/12/14 02:55:48;;;;;;;34.00;14.68;;;-3.90;99.90;;;;;;5053614;28;20052;-70
2022/12/14 02:58:25;;;;;;;36.45;15.13;;;-3.90;99.90;;;;;;5071858;28;20048;-70
2022/12/14 03:00:54;;;;;;;32.70;14.00;;;-3.90;99.90;;;;;;5072033;28;20040;-69
2022/12/14 03:03:19;;;;;;;33.50;15.43;;;-3.90;99.90;;;;;;5071977;28;20067;-69
2022/12/14 03:06:00;;;;;;;30.10;15.05;;;-3.90;99.90;;;;;;5071201;28;20079;-69
2022/12/14 03:08:28;;;;;;;31.00;13.32;;;-3.90;99.90;;;;;;5071621;28;20234;-69
2022/12/14 03:11:00;;;;;;;31.85;14.02;;;-3.90;99.90;;;;;;5069971;28;20065;-68
2022/12/14 03:13:36;;;;;;;35.88;15.00;;;-4.00;99.90;;;;;;5071676;28;20040;-69
2022/12/14 03:16:20;;;;;;;30.40;13.65;;;-4.00;99.90;;;;;;5071141;28;20048;-69
2022/12/14 03:18:56;;;;;;;31.20;13.65;;;-4.20;99.90;;;;;;5071428;28;20119;-69
2022/12/14 03:21:34;;;;;;;27.58;13.77;;;-4.30;99.90;;;;;;5072010;28;20040;-69
2022/12/14 03:24:06;;;;;;;31.27;14.25;;;-4.40;99.90;;;;;;5070704;28;20547;-69
2022/12/14 03:26:44;;;;;;;29.92;13.95;;;-4.10;99.90;;;;;;5053519;28;20048;-69
2022/12/14 03:29:17;;;;;;;35.03;14.77;;;-4.10;99.90;;;;;;5053294;28;20063;-69
2022/12/14 03:31:55;;;;;;;37.05;13.88;;;-4.30;99.90;;;;;;5071612;28;20041;-69
2022/12/14 03:34:31;;;;;;;26.73;13.48;;;-4.20;99.90;;;;;;5070834;28;20393;-68
2022/12/14 03:37:09;;;;;;;41.22;14.93;;;-4.40;99.90;;;;;;5071715;28;20044;-69
2022/12/14 03:39:36;;;;;;;31.80;14.45;;;-4.50;99.90;;;;;;5071390;28;20040;-71
2022/12/14 03:42:11;;;;;;;30.70;13.65;;;-4.40;99.90;;;;;;5069913;28;20080;-69
2022/12/14 03:45:06;;;;;;;35.95;16.05;;;-4.40;99.90;;;;;;5070491;28;20041;-69
2022/12/14 03:48:00;;;;;;;34.40;13.00;;;-4.20;99.90;;;;;;5071071;28;20489;-68
2022/12/14 03:50:34;;;;;;;28.55;12.70;;;-4.30;99.90;;;;;;5071341;28;20075;-69
2022/12/14 03:53:21;;;;;;;35.72;13.82;;;-4.30;99.90;;;;;;5071481;28;20125;-69
2022/12/14 03:55:59;;;;;;;32.67;13.88;;;-4.30;99.90;;;;;;5070185;28;20044;-70
2022/12/14 03:58:58;;;;;;;38.15;15.25;;;-4.30;99.90;;;;;;5069580;28;20098;-69
2022/12/14 04:01:40;;;;;;;32.78;13.90;;;-4.20;99.90;;;;;;5071042;28;20044;-69
2022/12/14 04:04:11;;;;;;;36.13;14.32;;;-4.10;99.90;;;;;;5070157;28;20048;-70
2022/12/14 04:06:55;;;;;;;38.85;14.52;;;-4.10;99.90;;;;;;5071110;28;20036;-69
2022/12/14 04:09:28;;;;;;;31.13;13.13;;;-4.10;99.90;;;;;;5069978;28;20514;-69
2022/12/14 04:20:58;;;;;;;34.28;13.07;;;-4.30;99.90;;;;;;5070354;28;20070;-69
2022/12/14 04:26:19;;;;;;;32.50;12.20;;;-4.50;99.90;;;;;;5074768;28;20533;-71
2022/12/14 04:32:03;;;;;;;33.63;13.13;;;-4.40;99.90;;;;;;5066183;28;20044;-69
2022/12/14 04:34:31;;;;;;;33.47;13.73;;;-4.30;99.90;;;;;;5056137;28;20036;-70
2022/12/14 04:37:00;;;;;;;36.92;13.68;;;-4.30;99.90;;;;;;5074310;28;20119;-70
2022/12/14 04:39:52;;;;;;;34.40;15.48;;;-4.30;99.90;;;;;;5074426;28;20029;-69
2022/12/14 04:42:21;;;;;;;31.05;12.60;;;-4.30;99.90;;;;;;5071458;28;20076;-69
2022/12/14 04:44:52;;;;;;;36.70;12.88;;;-4.30;99.90;;;;;;5069961;28;20516;-70
2022/12/14 04:47:22;;;;;;;28.77;12.63;;;-4.40;99.90;;;;;;5070485;28;20497;-70
2022/12/14 04:50:19;;;;;;;28.45;12.32;;;-4.40;99.90;;;;;;5052606;28;20036;-70
2022/12/14 04:52:53;;;;;;;31.08;14.45;;;-4.50;99.90;;;;;;5070696;28;20040;-70
2022/12/14 04:55:45;;;;;;;33.40;13.55;;;-4.50;99.90;;;;;;5069854;28;20098;-70
2022/12/14 04:58:18;;;;;;;24.95;12.75;;;-4.50;99.90;;;;;;5052316;28;20045;-70
2022/12/14 05:01:15;;;;;;;34.85;12.68;;;-4.50;99.90;;;;;;5052528;28;20048;-69
2022/12/14 05:04:00;;;;;;;29.08;11.75;;;-4.50;99.90;;;;;;5070226;28;20071;-71
2022/12/14 05:06:43;;;;;;;34.08;12.90;;;-4.60;99.90;;;;;;5070509;28;20115;-70
2022/12/14 05:09:25;;;;;;;29.77;13.63;;;-4.60;99.90;;;;;;5070154;28;20508;-70
2022/12/14 05:12:14;;;;;;;28.10;13.57;;;-4.60;99.90;;;;;;5051320;28;20059;-70
2022/12/14 05:14:49;;;;;;;30.88;13.45;;;-4.60;99.90;;;;;;5069606;28;20044;-69
2022/12/14 05:17:15;;;;;;;41.25;14.45;;;-4.60;99.90;;;;;;5070384;28;20198;-69
2022/12/14 05:19:49;;;;;;;35.38;13.85;;;-4.50;99.90;;;;;;5052153;28;20067;-70
2022/12/14 05:22:16;;;;;;;34.60;14.85;;;-4.40;99.90;;;;;;5070133;28;20522;-69
2022/12/14 05:24:41;;;;;;;29.67;13.43;;;-4.40;99.90;;;;;;5068197;28;20042;-70
2022/12/14 05:27:07;;;;;;;32.05;12.88;;;-4.60;99.90;;;;;;5070188;28;20037;-71
2022/12/14 05:29:33;;;;;;;32.38;13.45;;;-4.60;99.90;;;;;;5070352;28;20032;-69
2022/12/14 05:31:59;;;;;;;36.92;12.43;;;-4.60;99.90;;;;;;5070377;28;20465;-69
2022/12/14 05:34:25;;;;;;;32.20;14.07;;;-4.60;99.90;;;;;;5071686;28;20377;-70
2022/12/14 05:36:51;;;;;;;36.67;14.13;;;-4.60;99.90;;;;;;5073744;28;20047;-69
2022/12/14 05:39:16;;;;;;;32.50;14.90;;;-4.50;99.90;;;;;;5073765;28;20044;-69
2022/12/14 05:41:43;;;;;;;31.25;13.60;;;-4.60;99.90;;;;;;5073534;28;20080;-69
2022/12/14 05:44:08;;;;;;;34.70;14.57;;;-4.60;99.90;;;;;;5070366;28;20094;-70
2022/12/14 05:46:34;;;;;;;34.85;13.60;;;-4.80;99.90;;;;;;5073228;28;20033;-69
2022/12/14 05:48:59;;;;;;;30.98;14.60;;;-4.80;99.90;;;;;;5073348;28;20557;-70
2022/12/14 05:51:25;;;;;;;36.03;14.73;;;-4.80;99.90;;;;;;5073431;28;20033;-69
2022/12/14 05:53:50;;;;;;;38.78;13.52;;;-4.80;99.90;;;;;;5072704;28;20063;-69
2022/12/14 05:56:16;;;;;;;36.17;14.45;;;-4.80;99.90;;;;;;5072084;28;20560;-69
2022/12/14 05:58:42;;;;;;;33.25;13.13;;;-4.60;99.90;;;;;;5055471;28;20051;-69
2022/12/14 06:01:10;;;;;;;38.17;14.23;;;-4.80;99.90;;;;;;5071988;28;20128;-69
2022/12/14 06:03:36;;;;;;;31.48;14.70;;;-4.80;99.90;;;;;;5073152;28;20045;-69
2022/12/14 06:06:07;;;;;;;41.58;15.02;;;-4.70;99.90;;;;;;5071334;28;20116;-69
2022/12/14 06:08:35;;;;;;;34.70;14.95;;;-4.70;99.90;;;;;;5073425;28;20037;-69
2022/12/14 06:11:09;;;;;;;32.58;13.32;;;-4.70;99.90;;;;;;5073184;28;20083;-69
2022/12/14 06:13:37;;;;;;;33.88;13.30;;;-4.70;99.90;;;;;;5071046;28;20051;-69
2022/12/14 06:16:23;;;;;;;32.83;13.38;;;-4.70;99.90;;;;;;5072193;28;20084;-69
2022/12/14 06:18:54;;;;;;;27.00;12.20;;;-4.60;99.90;;;;;;5073238;28;20040;-70
2022/12/14 06:21:22;;;;;;;32.60;13.55;;;-4.60;99.90;;;;;;5072837;28;20109;-69
2022/12/14 06:23:48;;;;;;;34.30;14.23;;;-4.50;99.90;;;;;;5072202;28;20037;-69
2022/12/14 06:26:14;;;;;;;32.92;13.57;;;-4.60;99.90;;;;;;5072901;28;20605;-69
2022/12/14 06:28:40;;;;;;;26.80;12.48;;;-4.70;99.90;;;;;;5054648;28;20493;-70
2022/12/14 06:31:07;;;;;;;31.88;12.65;;;-4.60;99.90;;;;;;5072934;28;20048;-70
2022/12/14 06:33:34;;;;;;;28.58;12.70;;;-4.60;99.90;;;;;;5054671;28;20092;-69
2022/12/14 06:36:00;;;;;;;29.55;13.80;;;-4.60;99.90;;;;;;5072151;28;20041;-68
2022/12/14 06:38:26;;;;;;;35.65;14.63;;;-4.60;99.90;;;;;;5072536;28;20048;-69
2022/12/14 06:40:51;;;;;;;38.10;13.48;;;-4.70;99.90;;;;;;5072634;28;20048;-69
2022/12/14 06:43:17;;;;;;;34.53;14.48;;;-4.70;99.90;;;;;;5072185;28;20044;-69
2022/12/14 06:45:42;;;;;;;34.78;14.65;;;-4.70;99.90;;;;;;5052885;28;20041;-71
2022/12/14 06:48:08;;;;;;;32.05;13.35;;;-4.60;99.90;;;;;;5072291;28;20553;-72
2022/12/14 06:50:34;;;;;;;29.80;13.65;;;-4.70;99.90;;;;;;5072125;28;20032;-69
2022/12/14 06:53:00;;;;;;;31.80;14.05;;;-4.70;99.90;;;;;;5072480;28;20076;-70
2022/12/14 06:55:26;;;;;;;32.25;13.48;;;-4.70;99.90;;;;;;5071349;28;20049;-69
2022/12/14 06:57:53;;;;;;;37.75;14.63;;;-4.70;99.90;;;;;;5071906;28;20572;-68
2022/12/14 07:00:22;;;;;;;29.88;13.65;;;-4.80;99.90;;;;;;5070596;28;20055;-70
2022/12/14 07:02:47;;;;;;;37.25;15.80;;;-4.80;99.90;;;;;;5054387;28;20051;-68
2022/12/14 07:05:14;;;;;;;34.53;13.15;;;-4.70;99.90;;;;;;5071417;28;20040;-68
2022/12/14 07:07:40;;;;;;;31.30;13.07;;;-4.70;99.90;;;;;;5072022;28;20051;-69
2022/12/14 07:10:07;;;;;;;32.38;13.48;;;-4.50;99.90;;;;;;5070415;28;20044;-69
2022/12/14 07:12:33;;;;;;;38.25;15.13;;;-4.60;99.90;;;;;;5071724;28;20045;-70
2022/12/14 07:14:59;;;;;;;32.28;13.05;;;-4.60;99.90;;;;;;5069789;28;20041;-70
2022/12/14 07:17:25;;;;;;;28.63;12.15;;;-4.40;99.90;;;;;;5071770;28;20051;-68
2022/12/14 07:19:52;;;;;;;35.78;14.18;;;-4.50;99.90;;;;;;5071955;28;20037;-68
2022/12/14 07:22:18;;;;;;;29.30;14.32;;;-4.40;99.90;;;;;;5071303;28;20120;-69
2022/12/14 07:24:44;;;;;;;30.92;14.88;;;-4.50;99.90;;;;;;5071082;28;20536;-70
2022/12/14 07:27:10;;;;;;;34.75;14.18;;;-4.40;99.90;;;;;;5068583;28;20036;-69
2022/12/14 07:29:35;;;;;;;34.75;12.77;;;-4.40;99.90;;;;;;5061879;28;20041;-71
2022/12/14 07:32:01;;;;;;;28.65;12.95;;;-4.40;99.90;;;;;;5061154;28;20842;-69
2022/12/14 07:34:27;;;;;;;29.25;13.07;;;-4.50;99.90;;;;;;5062769;28;20076;-70
2022/12/14 07:36:53;;;;;;;30.98;12.90;;;-4.60;99.90;;;;;;5069976;28;20414;-69
2022/12/14 07:39:20;;;;;;;28.85;13.98;;;-4.50;99.90;;;;;;5050875;28;20131;-69
2022/12/14 07:41:47;;;;;;;37.08;13.90;;;-4.50;99.90;;;;;;5069573;28;20097;-69
2022/12/14 07:44:13;;;;;;;31.75;12.73;;;-4.40;99.90;;;;;;5068799;28;20036;-70
2022/12/14 07:46:39;;;;;;;33.03;14.82;;;-4.40;99.90;;;;;;5066539;28;20040;-69
2022/12/14 07:49:06;;;;;;;28.75;13.20;;;-4.50;99.90;;;;;;5066923;28;20047;-69
2022/12/14 07:51:36;;;;;;;29.15;13.55;;;-4.60;99.90;;;;;;5053167;28;20037;-69
2022/12/14 07:54:04;;;;;;;28.50;12.45;;;-4.60;99.90;;;;;;5070256;28;20040;-71
2022/12/14 07:56:33;;;;;;;32.72;13.73;;;-4.50;99.90;;;;;;5071200;28;20042;-71
2022/12/14 07:59:00;;;;;;;27.70;12.65;;;-4.60;99.90;;;;;;5070775;28;20435;-70
2022/12/14 08:01:31;;;;;;;30.17;13.23;;;-4.60;99.90;;;;;;5069722;28;20055;-70
2022/12/14 08:04:06;;;;;;;33.88;13.50;;;-4.70;99.90;;;;;;5069912;28;20724;-68
2022/12/14 08:06:33;;;;;;;27.63;13.77;;;-4.40;99.90;;;;;;5070731;28;20692;-71
2022/12/14 08:08:59;;;;;;;34.20;13.18;;;-4.60;99.90;;;;;;5062099;28;20033;-69
2022/12/14 08:11:26;;;;;;;29.80;12.70;;;-4.60;99.90;;;;;;5047691;28;20120;-69
2022/12/14 08:14:03;;;;;;;27.00;12.57;;;-4.60;99.90;;;;;;5066726;28;20044;-69
2022/12/14 08:16:31;;;;;;;28.02;13.68;;;-4.40;99.90;;;;;;5070512;28;20050;-69
2022/12/14 08:18:57;;;;;;;34.08;13.15;;;-4.70;99.90;;;;;;5070723;28;20119;-69
2022/12/14 08:21:24;;;;;;;25.60;11.55;;;-4.60;99.90;;;;;;5063201;28;20044;-69
2022/12/14 08:23:51;;;;;;;30.55;12.00;;;-4.70;99.90;;;;;;5044970;28;20033;-68
2022/12/14 08:26:17;;;;;;;27.95;13.15;;;-4.70;99.90;;;;;;5049591;28;20049;-68
2022/12/14 08:28:43;;;;;;;27.25;11.73;;;-4.70;99.90;;;;;;5049743;28;20048;-69
2022/12/14 08:31:12;;;;;;;30.80;13.38;;;-4.70;99.90;;;;;;5050639;28;20037;-69
2022/12/14 08:33:39;;;;;;;37.45;11.88;;;-4.50;99.90;;;;;;5050561;28;20052;-69
2022/12/14 08:36:08;;;;;;;35.58;14.15;;;-4.40;99.90;;;;;;5050191;28;20049;-68
2022/12/14 08:38:35;;;;;;;29.65;12.10;;;-4.40;99.90;;;;;;5049339;28;20379;-69
2022/12/14 08:41:02;;;;;;;32.00;12.35;;;-4.30;99.90;;;;;;5070305;28;20036;-68
2022/12/14 08:43:28;;;;;;;30.52;12.48;;;-4.30;99.90;;;;;;5069027;28;20094;-69
2022/12/14 08:45:54;;;;;;;29.67;13.35;;;-4.40;99.90;;;;;;5069786;28;20570;-68
2022/12/14 08:48:20;;;;;;;29.98;13.35;;;-4.30;99.90;;;;;;5070687;28;20043;-69
2022/12/14 08:50:45;;;;;;;33.20;12.70;;;-4.30;99.90;;;;;;5056223;28;20477;-68
2022/12/14 08:53:11;;;;;;;32.03;14.02;;;-4.30;99.90;;;;;;5067349;28;20098;-69
2022/12/14 08:55:37;;;;;;;26.67;12.27;;;-4.20;99.90;;;;;;5069665;28;20050;-72
2022/12/14 08:58:02;;;;;;;28.50;12.68;;;-4.30;99.90;;;;;;5070204;28;20044;-71
2022/12/14 09:00:28;;;;;;;36.55;13.27;;;-4.20;99.90;;;;;;5052496;28;20109;-72
2022/12/14 09:02:53;;;;;;;29.25;13.73;;;-4.20;99.90;;;;;;5070501;28;20059;-73
2022/12/14 09:05:19;;;;;;;30.23;13.18;;;-4.10;99.90;;;;;;5069662;28;20048;-69
2022/12/14 09:07:45;;;;;;;28.05;11.38;;;-3.60;99.90;;;;;;5071796;28;20036;-69
2022/12/14 09:10:11;;;;;;;28.00;10.55;;;-3.90;99.90;;;;;;5074529;28;20040;-69
2022/12/14 09:12:37;;;;;;;28.52;11.63;;;-3.90;99.90;;;;;;5072885;28;20117;-69
2022/12/14 09:15:03;;;;;;;24.88;12.23;;;-4.00;99.90;;;;;;5073517;28;20044;-69
2022/12/14 09:17:28;;;;;;;30.25;12.48;;;-4.00;99.90;;;;;;5074055;28;20184;-69
2022/12/14 09:19:54;;;;;;;32.45;12.38;;;-4.00;99.90;;;;;;5074289;28;20044;-71
2022/12/14 09:22:19;;;;;;;29.77;13.63;;;-4.00;99.90;;;;;;5074140;28;20374;-69
2022/12/14 09:24:45;;;;;;;33.70;13.50;;;-3.90;99.90;;;;;;5055335;28;20076;-69
2022/12/14 09:27:10;;;;;;;39.65;14.30;;;-3.80;99.90;;;;;;5073948;28;20028;-70
2022/12/14 09:29:36;;;;;;;33.38;13.60;;;-3.80;99.90;;;;;;5074059;28;20415;-72
2022/12/14 09:32:02;;;;;;;30.67;12.75;;;-3.80;99.90;;;;;;5073852;28;20036;-70
2022/12/14 09:34:28;;;;;;;29.27;12.75;;;-3.90;99.90;;;;;;5073277;28;20056;-70
2022/12/14 09:36:53;;;;;;;39.28;15.32;;;-3.80;99.90;;;;;;5072289;28;20121;-70
2022/12/14 09:39:19;;;;;;;32.50;13.77;;;-3.70;99.90;;;;;;5073506;28;20474;-70
2022/12/14 09:42:02;;;;;;;35.72;13.68;;;-3.70;99.90;;;;;;5073311;28;20044;-70
2022/12/14 09:44:56;;;;;;;33.35;12.75;;;-3.70;99.90;;;;;;5072809;28;20456;-70
2022/12/14 09:47:42;;;;;;;27.38;12.55;;;-3.60;99.90;;;;;;5072162;28;20500;-70
2022/12/14 09:50:16;;;;;;;36.22;12.68;;;-3.60;99.90;;;;;;5073248;28;20044;-69
2022/12/14 09:52:49;;;;;;;34.65;14.43;;;-3.50;99.90;;;;;;5073497;28;20041;-70
2022/12/14 09:55:26;;;;;;;32.72;13.57;;;-3.50;99.90;;;;;;5072785;28;20036;-70
2022/12/14 09:58:16;;;;;;;38.08;15.50;;;-3.40;99.90;;;;;;5073463;28;20048;-70
2022/12/14 10:01:06;;;;;;;34.00;13.38;;;-3.40;99.90;;;;;;5073483;28;20040;-70
2022/12/14 10:04:14;;;;;;;36.40;14.95;;;-3.30;99.90;;;;;;5055124;28;20063;-70
2022/12/14 10:07:15;;;;;;;32.03;13.18;;;-3.30;99.90;;;;;;5072061;28;20036;-70
2022/12/14 10:09:49;;;;;;;29.95;13.57;;;-3.20;99.90;;;;;;5073171;28;20040;-69
2022/12/14 10:12:52;;;;;;;29.13;12.35;;;-3.20;99.90;;;;;;5071472;28;20047;-70
2022/12/14 10:15:30;;;;;;;;;;;-3.20;99.90;;;;;;5073075;28;20378;-70
2022/12/14 10:17:59;;;;;;;31.90;14.02;;;-3.10;99.90;;;;;;5073160;28;19920;-70
2022/12/14 10:20:33;;;;;;;37.33;14.82;;;-3.00;99.90;;;;;;5072886;28;20037;-70
2022/12/14 10:23:00;;;;;;;28.73;14.63;;;-3.10;99.90;;;;;;5073206;28;20052;-71
2022/12/14 10:25:35;;;;;;;28.50;12.88;;;-3.00;99.90;;;;;;5071002;28;20051;-70
2022/12/14 10:28:40;;;;;;;32.67;13.40;;;-2.90;99.90;;;;;;5071749;28;20120;-71
2022/12/14 10:31:12;;;;;;;30.15;13.77;;;-3.00;99.90;;;;;;5071446;28;20048;-71
2022/12/14 10:33:45;;;;;;;35.38;14.07;;;-2.90;99.90;;;;;;5062450;28;20043;-71
2022/12/14 10:36:24;;;;;;;34.72;14.30;;;-3.00;99.90;;;;;;5063006;28;20127;-71
2022/12/14 10:39:06;;;;;;;25.15;13.20;;;-2.90;99.90;;;;;;5057771;28;20050;-72
2022/12/14 10:42:01;;;;;;;26.27;13.07;;;-2.90;99.90;;;;;;5052534;28;20033;-72
2022/12/14 10:44:43;;;;;;;26.48;12.88;;;-2.90;99.90;;;;;;5052095;28;20311;-70
2022/12/14 10:47:23;;;;;;;32.70;14.30;;;-2.80;99.90;;;;;;5052716;28;20041;-71
2022/12/14 10:50:21;;;;;;;31.58;12.80;;;-2.60;99.90;;;;;;5052485;28;20033;-71
2022/12/14 10:52:52;;;;;;;32.17;12.60;;;-2.50;99.90;;;;;;5052343;28;20045;-71
2022/12/14 10:55:32;;;;;;;30.27;13.43;;;-2.60;99.90;;;;;;5059915;28;20044;-71
2022/12/14 10:57:57;;;;;;;31.58;12.75;;;-2.40;99.90;;;;;;5070994;28;20524;-71
2022/12/14 11:00:23;;;;;;;24.40;12.95;;;-2.50;99.90;;;;;;5072249;28;20052;-70
2022/12/14 11:02:53;;;;;;;26.50;11.52;;;-2.50;99.90;;;;;;5072066;28;20610;-71
2022/12/14 11:05:46;;;;;;;25.77;11.93;;;-2.50;99.90;;;;;;5068032;28;20037;-69
2022/12/14 11:08:39;;;;;;;28.95;13.65;;;-2.40;99.90;;;;;;5067710;28;20113;-71
2022/12/14 11:11:09;;;;;;;;;;;-2.40;99.90;;;;;;5050528;28;20489;-70
2022/12/14 11:13:35;;;;;;;25.17;10.90;;;-2.40;99.90;;;;;;5060834;28;19923;-71
2022/12/14 11:16:26;;;;;;;26.20;10.90;;;-2.40;99.90;;;;;;5060240;28;20037;-71
2022/12/14 11:18:57;;;;;;;29.33;11.98;;;-2.30;99.90;;;;;;5059187;28;20049;-71
2022/12/14 11:21:29;;;;;;;26.20;11.43;;;-2.30;99.90;;;;;;5057326;28;20155;-70
2022/12/14 11:23:55;;;;;;;29.55;13.57;;;-2.10;99.90;;;;;;5050943;28;20124;-71
2022/12/14 11:26:52;;;;;;;31.15;13.27;;;-2.30;99.90;;;;;;5051847;28;20111;-70
2022/12/14 11:29:27;;;;;;;32.95;13.00;;;-2.30;99.90;;;;;;5043500;28;20087;-71
2022/12/14 11:31:52;;;;;;;25.63;10.95;;;-2.30;99.90;;;;;;5033342;28;20059;-70
2022/12/14 11:34:39;;;;;;;30.25;12.70;;;-2.30;99.90;;;;;;5058455;28;20191;-70
2022/12/14 11:37:22;;;;;;;29.35;14.05;;;-2.20;99.90;;;;;;5051484;28;20037;-71
2022/12/14 11:39:53;;;;;;;22.58;11.80;;;-2.20;99.90;;;;;;5051535;28;20131;-70
2022/12/14 11:42:20;;;;;;;29.83;12.43;;;-2.20;99.90;;;;;;5033007;28;20049;-73
2022/12/14 11:44:48;;;;;;;19.50;10.07;;;-2.00;99.90;;;;;;5032693;28;20045;-70
2022/12/14 11:47:17;;;;;;;23.35;10.27;;;-2.00;99.90;;;;;;5050960;28;20087;-71
2022/12/14 11:49:46;;;;;;;35.03;13.23;;;-1.80;99.90;;;;;;5049988;28;20044;-70
2022/12/14 11:52:18;;;;;;;25.45;12.25;;;-1.80;99.90;;;;;;5049973;28;20041;-70
2022/12/14 11:54:45;;;;;;;25.23;10.65;;;-1.80;99.90;;;;;;5049262;28;20048;-70
2022/12/14 11:57:11;;;;;;;27.35;12.82;;;-1.70;99.90;;;;;;5047947;28;20091;-70
2022/12/14 11:59:57;;;;;;;27.45;11.75;;;-1.70;99.90;;;;;;5049763;28;20044;-70
2022/12/14 12:02:31;;;;;;;28.52;11.10;;;-1.70;99.90;;;;;;5049840;28;20497;-71
2022/12/14 12:05:07;;;;;;;24.50;11.38;;;-1.60;99.90;;;;;;5050140;28;20036;-70
2022/12/14 12:07:36;;;;;;;23.98;11.98;;;-1.60;99.90;;;;;;5060408;28;20049;-70
2022/12/14 12:10:11;;;;;;;18.40;9.98;;;-1.70;99.90;;;;;;5054010;28;20041;-71
2022/12/14 12:12:45;;;;;;;29.35;11.75;;;-1.60;99.90;;;;;;5050585;28;20048;-70
2022/12/14 12:15:17;;;;;;;23.15;11.25;;;-1.50;99.90;;;;;;5050174;28;20037;-70
2022/12/14 12:17:49;;;;;;;24.25;12.18;;;-1.50;99.90;;;;;;5050282;28;20052;-71
2022/12/14 12:20:28;;;;;;;28.30;12.25;;;-1.50;99.90;;;;;;5049699;28;20047;-70
2022/12/14 12:23:01;;;;;;;27.27;11.80;;;-1.40;99.90;;;;;;5050550;28;20041;-71
2022/12/14 12:25:31;;;;;;;22.40;11.38;;;-1.50;99.90;;;;;;5052631;28;20063;-70
2022/12/14 12:28:04;;;;;;;29.33;11.52;;;-1.40;99.90;;;;;;5067276;28;20400;-71
2022/12/14 12:30:34;;;;;;;24.83;12.00;;;-1.40;99.90;;;;;;5069226;28;20028;-72
2022/12/14 12:33:10;;;;;;;24.48;11.38;;;-1.40;99.90;;;;;;5070520;28;20048;-72
2022/12/14 12:35:43;;;;;;;26.08;11.35;;;-1.40;99.90;;;;;;5070052;28;20040;-70
2022/12/14 12:38:39;;;;;;;19.58;10.18;;;-1.30;99.90;;;;;;5070899;28;20086;-71
2022/12/14 12:41:21;;;;;;;31.23;12.45;;;-1.30;99.90;;;;;;5070530;28;20568;-71
2022/12/14 12:43:56;;;;;;;23.92;10.93;;;-1.30;99.90;;;;;;5069515;28;20037;-70
2022/12/14 12:46:30;;;;;;;27.33;11.05;;;-1.30;99.90;;;;;;5070818;28;20078;-70
2022/12/14 12:49:08;;;;;;;24.27;12.27;;;-1.30;99.90;;;;;;5070755;28;20394;-71
2022/12/14 12:51:47;;;;;;;21.80;11.60;;;-1.30;99.90;;;;;;5052486;28;20106;-70
2022/12/14 12:54:40;;;;;;;26.25;11.73;;;-1.20;99.90;;;;;;5070142;28;20043;-70
2022/12/14 12:57:10;;;;;;;30.58;11.48;;;-1.20;99.90;;;;;;5070559;28;20447;-70
2022/12/14 12:59:39;;;;;;;22.10;10.82;;;-1.30;99.90;;;;;;5070408;28;20102;-70
2022/12/14 13:02:27;;;;;;;24.05;10.90;;;-1.30;99.90;;;;;;5070502;28;20040;-70
2022/12/14 13:04:54;;;;;;;26.08;11.90;;;-1.30;99.90;;;;;;5069846;28;20123;-72
2022/12/14 13:07:41;;;;;;;27.55;10.85;;;-1.20;99.90;;;;;;5070067;28;20094;-71
2022/12/14 13:10:23;;;;;;;25.05;11.57;;;-1.20;99.90;;;;;;5063426;28;20052;-71